sensor_id;sensor_type;location;lat;lon;timestamp;temperature;humidity
3275;DHT22;1649;53.672;10.064;2023-03-05T00:01:05;2.80;99.90
3275;DHT22;1649;53.672;10.064;2023-03-05T00:03:31;2.80;99.90
3275;DHT22;1649;53.672;10.064;2023-03-05T00:05:57;2.80;99.90
3275;DHT22;1649;53.672;10.064;2023-03-05T00:08:22;2.80;99.90
3275;DHT22;1649;53.672;10.064;2023-03-05T00:10:58;2.80;99.90
3275;DHT22;1649;53.672;10.064;2023-03-05T00:13:24;2.80;99.90
3275;DHT22;1649;53.672;10.064;2023-03-05T00:15:50;2.80;99.90
3275;DHT22;1649;53.672;10.064;2023-03-05T00:18:16;2.80;99.90
3275;DHT22;1649;53.672;10.064;2023-03-05T00:20:42;2.80;99.90
3275;DHT22;1649;53.672;10.064;2023-03-05T00:23:07;2.80;99.90
3275;DHT22;1649;53.672;10.064;2023-03-05T00:25:36;2.80;99.90
3275;DHT22;1649;53.672;10.064;2023-03-05T00:28:02;2.80;99.90
3275;DHT22;1649;53.672;10.064;2023-03-05T00:30:28;2.90;99.90
3275;DHT22;1649;53.672;10.064;2023-03-05T00:32:53;2.80;99.90
3275;DHT22;1649;53.672;10.064;2023-03-05T00:35:19;2.90;99.90
3275;DHT22;1649;53.672;10.064;2023-03-05T00:37:44;2.90;99.90
3275;DHT22;1649;53.672;10.064;2023-03-05T00:40:10;2.90;99.90
3275;DHT22;1649;53.672;10.064;2023-03-05T00:42:36;2.90;99.90
3275;DHT22;1649;53.672;10.064;2023-03-05T00:45:04;3.00;99.90
3275;DHT22;1649;53.672;10.064;2023-03-05T00:47:30;2.90;99.90
3275;DHT22;1649;53.672;10.064;2023-03-05T00:49:56;2.90;99.90
3275;DHT22;1649;53.672;10.064;2023-03-05T00:52:21;2.90;99.90
3275;DHT22;1649;53.672;10.064;2023-03-05T00:54:47;2.80;99.90
3275;DHT22;1649;53.672;10.064;2023-03-05T00:57:12;2.70;99.90
3275;DHT22;1649;53.672;10.064;2023-03-05T00:59:37;2.70;99.90
3275;DHT22;1649;53.672;10.064;2023-03-05T01:02:03;2.60;99.90
3275;DHT22;1649;53.672;10.064;2023-03-05T01:04:28;2.60;99.90
3275;DHT22;1649;53.672;10.064;2023-03-05T01:06:54;2.50;99.90
3275;DHT22;1649;53.672;10.064;2023-03-05T01:09:20;2.50;99.90
3275;DHT22;1649;53.672;10.064;2023-03-05T01:11:46;2.40;99.90
3275;DHT22;1649;53.672;10.064;2023-03-05T01:14:12;2.40;99.90
3275;DHT22;1649;53.672;10.064;2023-03-05T01:16:38;2.40;99.90
3275;DHT22;1649;53.672;10.064;2023-03-05T01:19:03;2.40;99.90
3275;DHT22;1649;53.672;10.064;2023-03-05T01:21:29;2.30;99.90
3275;DHT22;1649;53.672;10.064;2023-03-05T01:23:55;2.40;99.90
3275;DHT22;1649;53.672;10.064;2023-03-05T01:26:20;2.40;99.90
3275;DHT22;1649;53.672;10.064;2023-03-05T01:28:46;2.30;99.90
3275;DHT22;1649;53.672;10.064;2023-03-05T01:31:12;2.20;99.90
3275;DHT22;1649;53.672;10.064;2023-03-05T01:33:38;2.10;99.90
3275;DHT22;1649;53.672;10.064;2023-03-05T01:36:08;2.10;99.90
3275;DHT22;1649;53.672;10.064;2023-03-05T01:38:36;2.10;99.90
3275;DHT22;1649;53.672;10.064;2023-03-05T01:41:02;2.00;99.90
3275;DHT22;1649;53.672;10.064;2023-03-05T01:43:29;2.10;99.90
3275;DHT22;1649;53.672;10.064;2023-03-05T01:48:44;2.20;99.90
3275;DHT22;1649;53.672;10.064;2023-03-05T01:51:11;2.20;99.90
3275;DHT22;1649;53.672;10.064;2023-03-05T01:53:37;2.20;99.90
3275;DHT22;1649;53.672;10.064;2023-03-05T01:56:04;2.20;99.90
3275;DHT22;1649;53.672;10.064;2023-03-05T01:58:30;2.20;99.90
3275;DHT22;1649;53.672;10.064;2023-03-05T02:00:56;2.20;99.90
3275;DHT22;1649;53.672;10.064;2023-03-05T02:03:22;2.20;99.90
3275;DHT22;1649;53.672;10.064;2023-03-05T02:05:48;2.10;99.90
3275;DHT22;1649;53.672;10.064;2023-03-05T02:08:16;2.10;99.90
3275;DHT22;1649;53.672;10.064;2023-03-05T02:10:50;2.20;99.90
3275;DHT22;1649;53.672;10.064;2023-03-05T02:13:25;2.10;99.90
3275;DHT22;1649;53.672;10.064;2023-03-05T02:15:53;2.10;99.90
3275;DHT22;1649;53.672;10.064;2023-03-05T02:18:20;2.10;99.90
3275;DHT22;1649;53.672;10.064;2023-03-05T02:20:50;2.00;99.90
3275;DHT22;1649;53.672;10.064;2023-03-05T02:23:19;2.00;99.90
3275;DHT22;1649;53.672;10.064;2023-03-05T02:25:45;1.90;99.90
3275;DHT22;1649;53.672;10.064;2023-03-05T02:28:18;1.90;99.90
3275;DHT22;1649;53.672;10.064;2023-03-05T02:30:45;1.90;99.90
3275;DHT22;1649;53.672;10.064;2023-03-05T02:33:13;1.90;99.90
3275;DHT22;1649;53.672;10.064;2023-03-05T02:35:39;2.00;99.90
3275;DHT22;1649;53.672;10.064;2023-03-05T02:38:05;2.00;99.90
3275;DHT22;1649;53.672;10.064;2023-03-05T02:40:30;2.00;99.90
3275;DHT22;1649;53.672;10.064;2023-03-05T02:42:56;2.00;99.90
3275;DHT22;1649;53.672;10.064;2023-03-05T02:45:21;2.00;99.90
3275;DHT22;1649;53.672;10.064;2023-03-05T02:47:47;2.00;99.90
3275;DHT22;1649;53.672;10.064;2023-03-05T02:50:12;1.90;99.90
3275;DHT22;1649;53.672;10.064;2023-03-05T02:52:38;1.90;99.90
3275;DHT22;1649;53.672;10.064;2023-03-05T02:55:05;1.90;99.90
3275;DHT22;1649;53.672;10.064;2023-03-05T02:57:30;1.90;99.90
3275;DHT22;1649;53.672;10.064;2023-03-05T02:59:56;1.80;99.90
3275;DHT22;1649;53.672;10.064;2023-03-05T03:02:21;1.80;99.90
3275;DHT22;1649;53.672;10.064;2023-03-05T03:04:47;1.80;99.90
3275;DHT22;1649;53.672;10.064;2023-03-05T03:07:13;1.80;99.90
3275;DHT22;1649;53.672;10.064;2023-03-05T03:09:39;1.80;99.90
3275;DHT22;1649;53.672;10.064;2023-03-05T03:12:07;1.80;99.90
3275;DHT22;1649;53.672;10.064;2023-03-05T03:14:34;1.70;99.90
3275;DHT22;1649;53.672;10.064;2023-03-05T03:17:11;1.80;99.90
3275;DHT22;1649;53.672;10.064;2023-03-05T03:19:37;1.70;99.90
3275;DHT22;1649;53.672;10.064;2023-03-05T03:22:03;1.70;99.90
3275;DHT22;1649;53.672;10.064;2023-03-05T03:24:30;1.70;99.90
3275;DHT22;1649;53.672;10.064;2023-03-05T03:26:56;1.70;99.90
3275;DHT22;1649;53.672;10.064;2023-03-05T03:29:22;1.60;99.90
3275;DHT22;1649;53.672;10.064;2023-03-05T03:31:47;1.50;99.90
3275;DHT22;1649;53.672;10.064;2023-03-05T03:34:14;1.50;99.90
3275;DHT22;1649;53.672;10.064;2023-03-05T03:36:41;1.60;99.90
3275;DHT22;1649;53.672;10.064;2023-03-05T03:39:06;1.60;99.90
3275;DHT22;1649;53.672;10.064;2023-03-05T03:41:34;1.50;99.90
3275;DHT22;1649;53.672;10.064;2023-03-05T03:44:00;1.50;99.90
3275;DHT22;1649;53.672;10.064;2023-03-05T03:46:27;1.50;99.90
3275;DHT22;1649;53.672;10.064;2023-03-05T03:48:53;1.40;99.90
3275;DHT22;1649;53.672;10.064;2023-03-05T03:51:19;1.30;99.90
3275;DHT22;1649;53.672;10.064;2023-03-05T03:53:44;1.30;99.90
3275;DHT22;1649;53.672;10.064;2023-03-05T03:56:10;1.20;99.90
3275;DHT22;1649;53.672;10.064;2023-03-05T03:58:35;1.20;99.90
3275;DHT22;1649;53.672;10.064;2023-03-05T04:01:01;1.20;99.90
3275;DHT22;1649;53.672;10.064;2023-03-05T04:03:26;1.20;99.90
3275;DHT22;1649;53.672;10.064;2023-03-05T04:05:52;1.30;99.90
3275;DHT22;1649;53.672;10.064;2023-03-05T04:08:17;1.40;99.90
3275;DHT22;1649;53.672;10.064;2023-03-05T04:10:43;1.40;99.90
3275;DHT22;1649;53.672;10.064;2023-03-05T04:13:09;1.40;99.90
3275;DHT22;1649;53.672;10.064;2023-03-05T04:15:34;1.40;99.90
3275;DHT22;1649;53.672;10.064;2023-03-05T04:18:00;1.40;99.90
3275;DHT22;1649;53.672;10.064;2023-03-05T04:20:25;1.40;99.90
3275;DHT22;1649;53.672;10.064;2023-03-05T04:22:51;1.40;99.90
3275;DHT22;1649;53.672;10.064;2023-03-05T04:25:16;1.40;99.90
3275;DHT22;1649;53.672;10.064;2023-03-05T04:27:42;1.40;99.90
3275;DHT22;1649;53.672;10.064;2023-03-05T04:30:11;1.40;99.90
3275;DHT22;1649;53.672;10.064;2023-03-05T04:32:39;1.40;99.90
3275;DHT22;1649;53.672;10.064;2023-03-05T04:35:04;1.40;99.90
3275;DHT22;1649;53.672;10.064;2023-03-05T04:37:30;1.30;99.90
3275;DHT22;1649;53.672;10.064;2023-03-05T04:39:55;1.40;99.90
3275;DHT22;1649;53.672;10.064;2023-03-05T04:42:21;1.40;99.90
3275;DHT22;1649;53.672;10.064;2023-03-05T04:44:47;1.40;99.90
3275;DHT22;1649;53.672;10.064;2023-03-05T04:47:13;1.40;99.90
3275;DHT22;1649;53.672;10.064;2023-03-05T04:49:39;1.40;99.90
3275;DHT22;1649;53.672;10.064;2023-03-05T04:52:04;1.40;99.90
3275;DHT22;1649;53.672;10.064;2023-03-05T04:54:30;1.40;99.90
3275;DHT22;1649;53.672;10.064;2023-03-05T04:56:55;1.40;99.90
3275;DHT22;1649;53.672;10.064;2023-03-05T04:59:21;1.40;99.90
3275;DHT22;1649;53.672;10.064;2023-03-05T05:01:46;1.40;99.90
3275;DHT22;1649;53.672;10.064;2023-03-05T05:04:12;1.40;99.90
3275;DHT22;1649;53.672;10.064;2023-03-05T05:06:37;1.40;99.90
3275;DHT22;1649;53.672;10.064;2023-03-05T05:09:03;1.40;99.90
3275;DHT22;1649;53.672;10.064;2023-03-05T05:11:28;1.40;99.90
3275;DHT22;1649;53.672;10.064;2023-03-05T05:13:54;1.40;99.90
3275;DHT22;1649;53.672;10.064;2023-03-05T05:16:19;1.40;99.90
3275;DHT22;1649;53.672;10.064;2023-03-05T05:18:45;1.40;99.90
3275;DHT22;1649;53.672;10.064;2023-03-05T05:21:12;1.40;99.90
3275;DHT22;1649;53.672;10.064;2023-03-05T05:23:38;1.40;99.90
3275;DHT22;1649;53.672;10.064;2023-03-05T05:26:05;1.40;99.90
3275;DHT22;1649;53.672;10.064;2023-03-05T05:28:31;1.40;99.90
3275;DHT22;1649;53.672;10.064;2023-03-05T05:30:57;1.40;99.90
3275;DHT22;1649;53.672;10.064;2023-03-05T05:33:23;1.40;99.90
3275;DHT22;1649;53.672;10.064;2023-03-05T05:35:49;1.40;99.90
3275;DHT22;1649;53.672;10.064;2023-03-05T05:38:15;1.40;99.90
3275;DHT22;1649;53.672;10.064;2023-03-05T05:40:40;1.40;99.90
3275;DHT22;1649;53.672;10.064;2023-03-05T05:43:06;1.40;99.90
3275;DHT22;1649;53.672;10.064;2023-03-05T05:45:31;1.40;99.90
3275;DHT22;1649;53.672;10.064;2023-03-05T05:47:57;1.40;99.90
3275;DHT22;1649;53.672;10.064;2023-03-05T05:50:22;1.40;99.90
3275;DHT22;1649;53.672;10.064;2023-03-05T05:52:50;1.40;99.90
3275;DHT22;1649;53.672;10.064;2023-03-05T05:55:15;1.30;99.90
3275;DHT22;1649;53.672;10.064;2023-03-05T05:57:41;1.40;99.90
3275;DHT22;1649;53.672;10.064;2023-03-05T06:00:10;1.30;99.90
3275;DHT22;1649;53.672;10.064;2023-03-05T06:02:38;1.40;99.90
3275;DHT22;1649;53.672;10.064;2023-03-05T06:05:04;1.40;99.90
3275;DHT22;1649;53.672;10.064;2023-03-05T06:07:30;1.50;99.90
3275;DHT22;1649;53.672;10.064;2023-03-05T06:09:56;1.50;99.90
3275;DHT22;1649;53.672;10.064;2023-03-05T06:12:21;1.50;99.90
3275;DHT22;1649;53.672;10.064;2023-03-05T06:14:47;1.50;99.90
3275;DHT22;1649;53.672;10.064;2023-03-05T06:17:12;1.60;99.90
3275;DHT22;1649;53.672;10.064;2023-03-05T06:19:38;1.60;99.90
3275;DHT22;1649;53.672;10.064;2023-03-05T06:22:03;1.70;99.90
3275;DHT22;1649;53.672;10.064;2023-03-05T06:24:29;1.70;99.90
3275;DHT22;1649;53.672;10.064;2023-03-05T06:26:54;1.70;99.90
3275;DHT22;1649;53.672;10.064;2023-03-05T06:29:20;1.70;99.90
3275;DHT22;1649;53.672;10.064;2023-03-05T06:31:45;1.70;99.90
3275;DHT22;1649;53.672;10.064;2023-03-05T06:34:11;1.70;99.90
3275;DHT22;1649;53.672;10.064;2023-03-05T06:36:38;1.80;99.90
3275;DHT22;1649;53.672;10.064;2023-03-05T06:39:05;1.80;99.90
3275;DHT22;1649;53.672;10.064;2023-03-05T06:41:30;1.80;99.90
3275;DHT22;1649;53.672;10.064;2023-03-05T06:43:58;1.80;99.90
3275;DHT22;1649;53.672;10.064;2023-03-05T06:46:34;1.80;99.90
3275;DHT22;1649;53.672;10.064;2023-03-05T06:49:02;1.80;99.90
3275;DHT22;1649;53.672;10.064;2023-03-05T06:51:33;1.80;99.90
3275;DHT22;1649;53.672;10.064;2023-03-05T06:54:02;1.90;99.90
3275;DHT22;1649;53.672;10.064;2023-03-05T06:56:28;1.90;99.90
3275;DHT22;1649;53.672;10.064;2023-03-05T06:58:54;1.90;99.90
3275;DHT22;1649;53.672;10.064;2023-03-05T07:01:20;1.90;99.90
3275;DHT22;1649;53.672;10.064;2023-03-05T07:03:49;2.00;99.90
3275;DHT22;1649;53.672;10.064;2023-03-05T07:06:15;2.00;99.90
3275;DHT22;1649;53.672;10.064;2023-03-05T07:08:41;2.20;99.90
3275;DHT22;1649;53.672;10.064;2023-03-05T07:11:24;2.20;99.90
3275;DHT22;1649;53.672;10.064;2023-03-05T07:13:50;2.20;99.90
3275;DHT22;1649;53.672;10.064;2023-03-05T07:16:24;2.30;99.90
3275;DHT22;1649;53.672;10.064;2023-03-05T07:18:50;2.30;99.90
3275;DHT22;1649;53.672;10.064;2023-03-05T07:21:19;2.30;99.90
3275;DHT22;1649;53.672;10.064;2023-03-05T07:23:45;2.40;99.90
3275;DHT22;1649;53.672;10.064;2023-03-05T07:26:11;2.40;99.90
3275;DHT22;1649;53.672;10.064;2023-03-05T07:28:37;2.40;99.90
3275;DHT22;1649;53.672;10.064;2023-03-05T07:31:05;2.50;99.90
3275;DHT22;1649;53.672;10.064;2023-03-05T07:33:31;2.50;99.90
3275;DHT22;1649;53.672;10.064;2023-03-05T07:35:56;2.60;99.90
3275;DHT22;1649;53.672;10.064;2023-03-05T07:38:22;2.60;99.90
3275;DHT22;1649;53.672;10.064;2023-03-05T07:40:48;2.60;99.90
3275;DHT22;1649;53.672;10.064;2023-03-05T07:43:14;2.70;99.90
3275;DHT22;1649;53.672;10.064;2023-03-05T07:45:41;2.70;99.90
3275;DHT22;1649;53.672;10.064;2023-03-05T07:48:12;2.70;99.90
3275;DHT22;1649;53.672;10.064;2023-03-05T07:50:38;2.80;99.90
3275;DHT22;1649;53.672;10.064;2023-03-05T07:53:04;2.90;99.90
3275;DHT22;1649;53.672;10.064;2023-03-05T07:55:29;3.00;99.90
3275;DHT22;1649;53.672;10.064;2023-03-05T07:57:55;3.10;99.90
3275;DHT22;1649;53.672;10.064;2023-03-05T08:00:20;3.10;99.90
3275;DHT22;1649;53.672;10.064;2023-03-05T08:02:46;3.10;99.90
3275;DHT22;1649;53.672;10.064;2023-03-05T08:05:12;3.20;99.90
3275;DHT22;1649;53.672;10.064;2023-03-05T08:07:38;3.20;99.90
3275;DHT22;1649;53.672;10.064;2023-03-05T08:10:04;3.30;99.90
3275;DHT22;1649;53.672;10.064;2023-03-05T08:12:30;3.50;99.90
3275;DHT22;1649;53.672;10.064;2023-03-05T08:14:55;3.90;99.90
3275;DHT22;1649;53.672;10.064;2023-03-05T08:17:21;4.10;99.90
3275;DHT22;1649;53.672;10.064;2023-03-05T08:19:46;4.10;99.90
3275;DHT22;1649;53.672;10.064;2023-03-05T08:22:12;4.10;99.90
3275;DHT22;1649;53.672;10.064;2023-03-05T08:24:40;4.10;99.90
3275;DHT22;1649;53.672;10.064;2023-03-05T08:27:06;4.00;99.90
3275;DHT22;1649;53.672;10.064;2023-03-05T08:29:31;4.10;99.90
3275;DHT22;1649;53.672;10.064;2023-03-05T08:31:57;4.00;99.90
3275;DHT22;1649;53.672;10.064;2023-03-05T08:34:22;4.10;99.90
3275;DHT22;1649;53.672;10.064;2023-03-05T08:36:48;4.10;99.90
3275;DHT22;1649;53.672;10.064;2023-03-05T08:39:14;4.10;99.90
3275;DHT22;1649;53.672;10.064;2023-03-05T08:41:39;4.10;99.90
3275;DHT22;1649;53.672;10.064;2023-03-05T08:44:05;4.20;99.90
3275;DHT22;1649;53.672;10.064;2023-03-05T08:46:31;4.40;99.90
3275;DHT22;1649;53.672;10.064;2023-03-05T08:48:57;4.40;99.90
3275;DHT22;1649;53.672;10.064;2023-03-05T08:51:23;4.40;99.90
3275;DHT22;1649;53.672;10.064;2023-03-05T08:53:50;4.50;99.90
3275;DHT22;1649;53.672;10.064;2023-03-05T08:56:16;4.40;99.90
3275;DHT22;1649;53.672;10.064;2023-03-05T08:58:42;4.50;99.90
3275;DHT22;1649;53.672;10.064;2023-03-05T09:01:08;4.70;99.90
3275;DHT22;1649;53.672;10.064;2023-03-05T09:03:33;4.90;99.90
3275;DHT22;1649;53.672;10.064;2023-03-05T09:06:00;5.00;99.90
3275;DHT22;1649;53.672;10.064;2023-03-05T09:08:26;5.20;99.90
3275;DHT22;1649;53.672;10.064;2023-03-05T09:10:52;5.40;99.90
3275;DHT22;1649;53.672;10.064;2023-03-05T09:13:17;5.50;99.90
3275;DHT22;1649;53.672;10.064;2023-03-05T09:15:43;5.50;99.90
3275;DHT22;1649;53.672;10.064;2023-03-05T09:18:08;5.50;99.90
3275;DHT22;1649;53.672;10.064;2023-03-05T09:20:34;5.80;99.90
3275;DHT22;1649;53.672;10.064;2023-03-05T09:23:00;6.10;99.90
3275;DHT22;1649;53.672;10.064;2023-03-05T09:25:26;6.40;99.90
3275;DHT22;1649;53.672;10.064;2023-03-05T09:27:51;6.40;99.90
3275;DHT22;1649;53.672;10.064;2023-03-05T09:30:17;6.30;99.90
3275;DHT22;1649;53.672;10.064;2023-03-05T09:32:42;6.10;99.90
3275;DHT22;1649;53.672;10.064;2023-03-05T09:35:08;6.00;99.90
3275;DHT22;1649;53.672;10.064;2023-03-05T09:37:34;5.90;99.90
3275;DHT22;1649;53.672;10.064;2023-03-05T09:39:59;5.80;99.90
3275;DHT22;1649;53.672;10.064;2023-03-05T09:42:43;5.50;99.90
3275;DHT22;1649;53.672;10.064;2023-03-05T09:45:26;5.50;99.90
3275;DHT22;1649;53.672;10.064;2023-03-05T09:48:01;5.50;99.90
3275;DHT22;1649;53.672;10.064;2023-03-05T09:50:35;5.50;99.90
3275;DHT22;1649;53.672;10.064;2023-03-05T09:56:21;5.40;99.90
3275;DHT22;1649;53.672;10.064;2023-03-05T10:01:43;5.30;99.90
3275;DHT22;1649;53.672;10.064;2023-03-05T10:04:27;5.10;99.90
3275;DHT22;1649;53.672;10.064;2023-03-05T10:07:10;4.80;99.90
3275;DHT22;1649;53.672;10.064;2023-03-05T10:12:25;4.30;99.90
3275;DHT22;1649;53.672;10.064;2023-03-05T10:14:53;4.30;99.90
3275;DHT22;1649;53.672;10.064;2023-03-05T10:26:04;4.50;99.90
3275;DHT22;1649;53.672;10.064;2023-03-05T10:31:29;5.80;99.90
3275;DHT22;1649;53.672;10.064;2023-03-05T10:39:58;6.60;99.90
3275;DHT22;1649;53.672;10.064;2023-03-05T10:42:49;7.30;99.90
3275;DHT22;1649;53.672;10.064;2023-03-05T10:45:25;7.80;99.90
3275;DHT22;1649;53.672;10.064;2023-03-05T10:48:04;7.80;99.90
3275;DHT22;1649;53.672;10.064;2023-03-05T10:50:45;7.70;99.90
3275;DHT22;1649;53.672;10.064;2023-03-05T10:56:13;7.50;99.90
3275;DHT22;1649;53.672;10.064;2023-03-05T10:58:39;7.70;99.90
3275;DHT22;1649;53.672;10.064;2023-03-05T11:01:17;7.60;99.90
3275;DHT22;1649;53.672;10.064;2023-03-05T11:06:34;7.50;99.90
3275;DHT22;1649;53.672;10.064;2023-03-05T11:09:25;7.60;99.90
3275;DHT22;1649;53.672;10.064;2023-03-05T11:14:29;7.00;99.90
3275;DHT22;1649;53.672;10.064;2023-03-05T11:16:57;6.70;99.90
3275;DHT22;1649;53.672;10.064;2023-03-05T11:19:25;6.70;99.90
3275;DHT22;1649;53.672;10.064;2023-03-05T11:24:35;6.10;99.90
3275;DHT22;1649;53.672;10.064;2023-03-05T11:27:19;5.80;99.90
3275;DHT22;1649;53.672;10.064;2023-03-05T11:29:48;5.00;99.90
3275;DHT22;1649;53.672;10.064;2023-03-05T11:32:16;4.30;99.90
3275;DHT22;1649;53.672;10.064;2023-03-05T11:34:44;3.80;99.90
3275;DHT22;1649;53.672;10.064;2023-03-05T11:37:25;3.80;99.90
3275;DHT22;1649;53.672;10.064;2023-03-05T11:40:17;4.10;99.90
3275;DHT22;1649;53.672;10.064;2023-03-05T11:42:44;4.30;99.90
3275;DHT22;1649;53.672;10.064;2023-03-05T11:45:17;4.70;99.90
3275;DHT22;1649;53.672;10.064;2023-03-05T11:47:53;5.10;99.90
3275;DHT22;1649;53.672;10.064;2023-03-05T11:52:59;5.80;99.90
3275;DHT22;1649;53.672;10.064;2023-03-05T11:55:35;6.00;99.90
3275;DHT22;1649;53.672;10.064;2023-03-05T11:58:31;6.50;99.90
3275;DHT22;1649;53.672;10.064;2023-03-05T12:01:00;6.70;99.90
3275;DHT22;1649;53.672;10.064;2023-03-05T12:03:32;7.00;99.90
3275;DHT22;1649;53.672;10.064;2023-03-05T12:08:32;7.30;99.90
3275;DHT22;1649;53.672;10.064;2023-03-05T12:11:05;6.80;99.90
3275;DHT22;1649;53.672;10.064;2023-03-05T12:13:43;6.70;99.90
3275;DHT22;1649;53.672;10.064;2023-03-05T12:16:32;6.90;99.90
3275;DHT22;1649;53.672;10.064;2023-03-05T12:21:51;7.30;99.90
3275;DHT22;1649;53.672;10.064;2023-03-05T12:29:41;7.00;99.90
3275;DHT22;1649;53.672;10.064;2023-03-05T12:35:00;7.00;99.90
3275;DHT22;1649;53.672;10.064;2023-03-05T12:43:26;7.90;99.90
3275;DHT22;1649;53.672;10.064;2023-03-05T12:45:50;8.00;99.90
3275;DHT22;1649;53.672;10.064;2023-03-05T12:53:11;6.80;99.90
3275;DHT22;1649;53.672;10.064;2023-03-05T13:03:49;5.90;99.90
3275;DHT22;1649;53.672;10.064;2023-03-05T13:09:02;5.60;99.90
3275;DHT22;1649;53.672;10.064;2023-03-05T13:11:30;5.40;99.90
3275;DHT22;1649;53.672;10.064;2023-03-05T13:13:58;5.40;99.90
3275;DHT22;1649;53.672;10.064;2023-03-05T13:16:27;5.20;99.90
3275;DHT22;1649;53.672;10.064;2023-03-05T13:18:55;5.20;99.90
3275;DHT22;1649;53.672;10.064;2023-03-05T13:21:26;5.30;99.90
3275;DHT22;1649;53.672;10.064;2023-03-05T13:23:55;5.30;99.90
3275;DHT22;1649;53.672;10.064;2023-03-05T13:26:25;5.30;99.90
3275;DHT22;1649;53.672;10.064;2023-03-05T13:29:15;5.20;99.90
3275;DHT22;1649;53.672;10.064;2023-03-05T13:31:50;5.10;99.90
3275;DHT22;1649;53.672;10.064;2023-03-05T13:36:56;5.00;99.90
3275;DHT22;1649;53.672;10.064;2023-03-05T13:39:33;4.70;99.90
3275;DHT22;1649;53.672;10.064;2023-03-05T13:42:05;4.40;99.90
3275;DHT22;1649;53.672;10.064;2023-03-05T13:44:32;4.30;99.90
3275;DHT22;1649;53.672;10.064;2023-03-05T13:47:18;4.50;99.90
3275;DHT22;1649;53.672;10.064;2023-03-05T13:49:44;4.60;99.90
3275;DHT22;1649;53.672;10.064;2023-03-05T13:52:22;4.70;99.90
3275;DHT22;1649;53.672;10.064;2023-03-05T13:54:48;4.70;99.90
3275;DHT22;1649;53.672;10.064;2023-03-05T14:00:00;5.00;99.90
3275;DHT22;1649;53.672;10.064;2023-03-05T14:02:26;5.10;99.90
3275;DHT22;1649;53.672;10.064;2023-03-05T14:04:53;5.20;99.90
3275;DHT22;1649;53.672;10.064;2023-03-05T14:07:37;5.30;99.90
3275;DHT22;1649;53.672;10.064;2023-03-05T14:12:56;5.50;99.90
3275;DHT22;1649;53.672;10.064;2023-03-05T14:15:28;5.60;99.90
3275;DHT22;1649;53.672;10.064;2023-03-05T14:20:39;5.60;99.90
3275;DHT22;1649;53.672;10.064;2023-03-05T14:26:26;5.70;99.90
3275;DHT22;1649;53.672;10.064;2023-03-05T14:28:55;5.70;99.90
3275;DHT22;1649;53.672;10.064;2023-03-05T14:31:21;5.70;99.90
3275;DHT22;1649;53.672;10.064;2023-03-05T14:33:47;5.70;99.90
3275;DHT22;1649;53.672;10.064;2023-03-05T14:36:20;5.70;99.90
3275;DHT22;1649;53.672;10.064;2023-03-05T14:38:46;5.70;99.90
3275;DHT22;1649;53.672;10.064;2023-03-05T14:41:37;5.60;99.90
3275;DHT22;1649;53.672;10.064;2023-03-05T14:44:11;5.60;99.90
3275;DHT22;1649;53.672;10.064;2023-03-05T14:46:37;5.50;99.90
3275;DHT22;1649;53.672;10.064;2023-03-05T14:49:02;5.50;99.90
3275;DHT22;1649;53.672;10.064;2023-03-05T14:51:28;5.40;99.90
3275;DHT22;1649;53.672;10.064;2023-03-05T14:53:54;5.30;99.90
3275;DHT22;1649;53.672;10.064;2023-03-05T14:56:25;5.30;99.90
3275;DHT22;1649;53.672;10.064;2023-03-05T14:58:51;5.20;99.90
3275;DHT22;1649;53.672;10.064;2023-03-05T15:01:17;5.20;99.90
3275;DHT22;1649;53.672;10.064;2023-03-05T15:03:42;5.30;99.90
3275;DHT22;1649;53.672;10.064;2023-03-05T15:06:26;5.40;99.90
3275;DHT22;1649;53.672;10.064;2023-03-05T15:08:54;5.30;99.90
3275;DHT22;1649;53.672;10.064;2023-03-05T15:11:19;5.30;99.90
3275;DHT22;1649;53.672;10.064;2023-03-05T15:13:47;5.30;99.90
3275;DHT22;1649;53.672;10.064;2023-03-05T15:16:14;5.30;99.90
3275;DHT22;1649;53.672;10.064;2023-03-05T15:18:41;5.30;99.90
3275;DHT22;1649;53.672;10.064;2023-03-05T15:21:07;5.20;99.90
3275;DHT22;1649;53.672;10.064;2023-03-05T15:23:32;5.00;99.90
3275;DHT22;1649;53.672;10.064;2023-03-05T15:26:03;5.00;99.90
3275;DHT22;1649;53.672;10.064;2023-03-05T15:28:37;5.00;99.90
3275;DHT22;1649;53.672;10.064;2023-03-05T15:31:04;5.00;99.90
3275;DHT22;1649;53.672;10.064;2023-03-05T15:33:30;4.80;99.90
3275;DHT22;1649;53.672;10.064;2023-03-05T15:35:56;4.80;99.90
3275;DHT22;1649;53.672;10.064;2023-03-05T15:38:22;4.70;99.90
3275;DHT22;1649;53.672;10.064;2023-03-05T15:40:48;4.60;99.90
3275;DHT22;1649;53.672;10.064;2023-03-05T15:43:15;4.60;99.90
3275;DHT22;1649;53.672;10.064;2023-03-05T15:45:40;4.60;99.90
3275;DHT22;1649;53.672;10.064;2023-03-05T15:48:06;4.60;99.90
3275;DHT22;1649;53.672;10.064;2023-03-05T15:50:32;4.60;99.90
3275;DHT22;1649;53.672;10.064;2023-03-05T15:52:57;4.50;99.90
3275;DHT22;1649;53.672;10.064;2023-03-05T15:55:23;4.50;99.90
3275;DHT22;1649;53.672;10.064;2023-03-05T15:57:50;4.50;99.90
3275;DHT22;1649;53.672;10.064;2023-03-05T16:00:19;4.60;99.90
3275;DHT22;1649;53.672;10.064;2023-03-05T16:02:46;4.50;99.90
3275;DHT22;1649;53.672;10.064;2023-03-05T16:05:11;4.50;99.90
3275;DHT22;1649;53.672;10.064;2023-03-05T16:07:39;4.50;99.90
3275;DHT22;1649;53.672;10.064;2023-03-05T16:10:09;4.50;99.90
3275;DHT22;1649;53.672;10.064;2023-03-05T16:12:36;4.40;99.90
3275;DHT22;1649;53.672;10.064;2023-03-05T16:15:07;4.40;99.90
3275;DHT22;1649;53.672;10.064;2023-03-05T16:17:33;4.40;99.90
3275;DHT22;1649;53.672;10.064;2023-03-05T16:19:58;4.30;99.90
3275;DHT22;1649;53.672;10.064;2023-03-05T16:22:24;4.40;99.90
3275;DHT22;1649;53.672;10.064;2023-03-05T16:24:49;4.30;99.90
3275;DHT22;1649;53.672;10.064;2023-03-05T16:27:15;4.20;99.90
3275;DHT22;1649;53.672;10.064;2023-03-05T16:29:40;4.20;99.90
3275;DHT22;1649;53.672;10.064;2023-03-05T16:32:06;4.10;99.90
3275;DHT22;1649;53.672;10.064;2023-03-05T16:34:32;4.20;99.90
3275;DHT22;1649;53.672;10.064;2023-03-05T16:36:59;4.10;99.90
3275;DHT22;1649;53.672;10.064;2023-03-05T16:39:26;4.10;99.90
3275;DHT22;1649;53.672;10.064;2023-03-05T16:41:52;4.00;99.90
3275;DHT22;1649;53.672;10.064;2023-03-05T16:44:17;4.00;99.90
3275;DHT22;1649;53.672;10.064;2023-03-05T16:46:43;3.90;99.90
3275;DHT22;1649;53.672;10.064;2023-03-05T16:49:13;3.90;99.90
3275;DHT22;1649;53.672;10.064;2023-03-05T16:51:39;3.90;99.90
3275;DHT22;1649;53.672;10.064;2023-03-05T16:54:04;3.80;99.90
3275;DHT22;1649;53.672;10.064;2023-03-05T16:56:30;3.80;99.90
3275;DHT22;1649;53.672;10.064;2023-03-05T16:58:56;3.80;99.90
3275;DHT22;1649;53.672;10.064;2023-03-05T17:01:22;3.90;99.90
3275;DHT22;1649;53.672;10.064;2023-03-05T17:03:49;3.80;99.90
3275;DHT22;1649;53.672;10.064;2023-03-05T17:06:22;3.70;99.90
3275;DHT22;1649;53.672;10.064;2023-03-05T17:08:49;3.70;99.90
3275;DHT22;1649;53.672;10.064;2023-03-05T17:11:15;3.60;99.90
3275;DHT22;1649;53.672;10.064;2023-03-05T17:13:41;3.60;99.90
3275;DHT22;1649;53.672;10.064;2023-03-05T17:16:09;3.50;99.90
3275;DHT22;1649;53.672;10.064;2023-03-05T17:18:35;3.40;99.90
3275;DHT22;1649;53.672;10.064;2023-03-05T17:21:02;3.40;99.90
3275;DHT22;1649;53.672;10.064;2023-03-05T17:23:28;3.40;99.90
3275;DHT22;1649;53.672;10.064;2023-03-05T17:25:54;3.40;99.90
3275;DHT22;1649;53.672;10.064;2023-03-05T17:28:19;3.40;99.90
3275;DHT22;1649;53.672;10.064;2023-03-05T17:30:45;3.30;99.90
3275;DHT22;1649;53.672;10.064;2023-03-05T17:33:11;3.30;99.90
3275;DHT22;1649;53.672;10.064;2023-03-05T17:35:37;3.30;99.90
3275;DHT22;1649;53.672;10.064;2023-03-05T17:38:07;3.20;99.90